createdAt,value
2022-11-29T00:01:25.108Z,14.07
2022-11-29T00:03:52.831Z,15.10
2022-11-29T00:06:22.495Z,14.80
2022-11-29T00:08:49.969Z,14.17
2022-11-29T00:11:38.832Z,14.68
2022-11-29T00:14:06.513Z,14.23
2022-11-29T00:16:33.379Z,14.68
2022-11-29T00:19:00.078Z,15.45
2022-11-29T00:21:26.620Z,14.57
2022-11-29T00:23:53.560Z,14.45
2022-11-29T00:26:20.183Z,13.85
2022-11-29T00:28:46.845Z,15.32
2022-11-29T00:31:18.949Z,14.90
2022-11-29T00:33:46.619Z,14.57
2022-11-29T00:36:14.053Z,15.40
2022-11-29T00:38:41.085Z,14.85
2022-11-29T00:41:08.683Z,16.73
2022-11-29T00:43:35.749Z,15.82
2022-11-29T00:46:03.214Z,16.40
2022-11-29T00:48:30.342Z,16.80
2022-11-29T00:50:56.806Z,16.02
2022-11-29T00:53:23.516Z,15.80
2022-11-29T00:55:51.930Z,16.90
2022-11-29T00:58:19.861Z,15.70
2022-11-29T01:00:47.614Z,14.85
2022-11-29T01:03:16.010Z,15.10
2022-11-29T01:05:43.011Z,15.70
2022-11-29T01:08:10.778Z,15.70
2022-11-29T01:10:37.398Z,14.33
2022-11-29T01:13:04.040Z,14.90
2022-11-29T01:15:30.916Z,14.18
2022-11-29T01:17:57.399Z,14.00
2022-11-29T01:20:23.951Z,13.50
2022-11-29T01:22:51.632Z,13.23
2022-11-29T01:25:19.433Z,14.35
2022-11-29T01:27:46.947Z,14.07
2022-11-29T01:30:14.128Z,15.10
2022-11-29T01:32:40.702Z,16.25
2022-11-29T01:35:07.636Z,15.87
2022-11-29T01:37:34.331Z,14.60
2022-11-29T01:40:00.832Z,14.82
2022-11-29T01:42:27.922Z,13.82
2022-11-29T01:45:08.174Z,14.30
2022-11-29T01:47:43.614Z,15.80
2022-11-29T01:50:10.830Z,13.98
2022-11-29T01:52:38.020Z,14.63
2022-11-29T01:55:07.417Z,14.18
2022-11-29T01:57:36.743Z,13.70
2022-11-29T02:00:09.293Z,13.57
2022-11-29T02:02:42.307Z,13.13
2022-11-29T02:05:10.350Z,14.23
2022-11-29T02:07:37.733Z,13.38
2022-11-29T02:10:06.548Z,13.73
2022-11-29T02:12:44.851Z,13.23
2022-11-29T02:15:25.947Z,12.25
2022-11-29T02:18:08.338Z,14.45
2022-11-29T02:20:53.000Z,13.85
2022-11-29T02:23:23.616Z,13.13
2022-11-29T02:26:15.456Z,12.80
2022-11-29T02:29:26.003Z,12.73
2022-11-29T02:32:07.940Z,13.05
2022-11-29T02:35:12.609Z,11.95
2022-11-29T02:38:00.958Z,11.32
2022-11-29T02:40:44.558Z,12.07
2022-11-29T02:43:31.265Z,11.25
2022-11-29T02:45:57.748Z,12.00
2022-11-29T02:48:36.903Z,11.60
2022-11-29T02:51:11.449Z,11.38
2022-11-29T02:53:43.988Z,11.53
2022-11-29T02:56:21.187Z,12.20
2022-11-29T02:58:55.698Z,12.07
2022-11-29T03:01:48.595Z,12.00
2022-11-29T03:04:29.989Z,11.73
2022-11-29T03:07:06.139Z,11.10
2022-11-29T03:09:43.584Z,12.82
2022-11-29T03:12:23.236Z,12.45
2022-11-29T03:15:13.775Z,13.07
2022-11-29T03:18:01.211Z,11.30
2022-11-29T03:20:45.215Z,12.33
2022-11-29T03:23:25.446Z,12.23
2022-11-29T03:26:06.949Z,12.07
2022-11-29T03:28:43.474Z,12.45
2022-11-29T03:31:24.531Z,11.90
2022-11-29T03:34:16.227Z,12.33
2022-11-29T03:36:51.902Z,13.05
2022-11-29T03:39:23.794Z,12.10
2022-11-29T03:42:02.206Z,11.23
2022-11-29T03:44:40.093Z,11.65
2022-11-29T03:47:12.599Z,10.80
2022-11-29T03:49:47.618Z,10.98
2022-11-29T03:52:24.147Z,10.48
2022-11-29T03:55:09.067Z,11.00
2022-11-29T03:57:50.132Z,10.40
2022-11-29T04:00:17.834Z,11.50
2022-11-29T04:02:55.605Z,9.88
2022-11-29T04:05:40.466Z,9.85
2022-11-29T04:08:27.559Z,9.77
2022-11-29T04:11:18.238Z,10.07
2022-11-29T04:14:04.288Z,9.57
2022-11-29T04:16:40.151Z,10.18
2022-11-29T04:19:33.146Z,9.90
2022-11-29T04:22:21.830Z,10.23
2022-11-29T04:25:15.313Z,9.82
2022-11-29T04:28:16.337Z,9.37
2022-11-29T04:31:33.471Z,8.95
2022-11-29T04:34:39.541Z,8.43
2022-11-29T04:37:24.726Z,9.30
2022-11-29T04:40:05.319Z,9.43
2022-11-29T04:42:56.168Z,9.73
2022-11-29T04:45:44.374Z,9.40
2022-11-29T04:48:21.330Z,9.98
2022-11-29T04:50:57.619Z,8.90
2022-11-29T04:53:59.977Z,10.07
2022-11-29T04:56:43.273Z,10.20
2022-11-29T04:59:38.744Z,9.93
2022-11-29T05:02:13.910Z,9.13
2022-11-29T05:04:56.587Z,10.10
2022-11-29T05:07:24.054Z,9.52
2022-11-29T05:10:18.337Z,9.33
2022-11-29T05:12:52.987Z,10.32
2022-11-29T05:15:44.774Z,11.40
2022-11-29T05:18:44.018Z,9.82
2022-11-29T05:21:25.725Z,11.13
2022-11-29T05:24:09.669Z,9.23
2022-11-29T05:27:05.344Z,8.70
2022-11-29T05:30:00.520Z,8.20
2022-11-29T05:32:34.810Z,7.63
2022-11-29T05:35:34.462Z,8.20
2022-11-29T05:38:10.410Z,8.37
2022-11-29T05:40:46.139Z,7.18
2022-11-29T05:43:27.691Z,6.60
2022-11-29T05:46:09.337Z,7.32
2022-11-29T05:48:54.621Z,8.23
2022-11-29T05:51:42.402Z,6.97
2022-11-29T05:54:26.383Z,7.18
2022-11-29T05:57:13.856Z,7.60
2022-11-29T05:59:42.754Z,7.90
2022-11-29T06:02:28.424Z,7.55
2022-11-29T06:05:17.618Z,7.73
2022-11-29T06:07:59.953Z,7.30
2022-11-29T06:10:32.871Z,7.30
2022-11-29T06:13:10.138Z,8.73
2022-11-29T06:16:10.693Z,7.78
2022-11-29T06:18:46.325Z,7.63
2022-11-29T06:21:37.343Z,7.93
2022-11-29T06:24:03.758Z,7.88
2022-11-29T06:26:48.447Z,8.13
2022-11-29T06:29:25.492Z,6.70
2022-11-29T06:32:16.253Z,7.00
2022-11-29T06:34:53.429Z,6.45
2022-11-29T06:37:29.628Z,6.57
2022-11-29T06:39:56.559Z,7.57
2022-11-29T06:42:23.133Z,5.78
2022-11-29T06:44:49.863Z,6.70
2022-11-29T06:47:28.864Z,7.13
2022-11-29T06:50:08.552Z,7.13
2022-11-29T06:52:43.688Z,7.25
2022-11-29T06:55:18.372Z,8.20
2022-11-29T06:58:03.294Z,7.50
2022-11-29T07:00:48.759Z,5.85
2022-11-29T07:03:35.652Z,6.78
2022-11-29T07:06:14.500Z,6.80
2022-11-29T07:08:43.443Z,6.75
2022-11-29T07:11:13.501Z,6.33
2022-11-29T07:13:40.272Z,7.07
2022-11-29T07:16:24.944Z,7.30
2022-11-29T07:19:03.749Z,7.63
2022-11-29T07:21:43.794Z,7.88
2022-11-29T07:24:16.280Z,7.30
2022-11-29T07:26:59.598Z,7.15
2022-11-29T07:29:39.583Z,7.38
2022-11-29T07:32:14.754Z,6.45
2022-11-29T07:34:51.139Z,6.35
2022-11-29T07:37:39.983Z,7.67
2022-11-29T07:40:15.245Z,6.97
2022-11-29T07:42:56.983Z,6.75
2022-11-29T07:45:28.222Z,6.20
2022-11-29T07:47:55.028Z,5.60
2022-11-29T07:50:22.040Z,5.53
2022-11-29T07:52:49.156Z,5.47
2022-11-29T07:55:19.210Z,5.82
2022-11-29T07:57:46.696Z,5.22
2022-11-29T08:00:13.973Z,5.65
2022-11-29T08:02:41.604Z,4.73
2022-11-29T08:05:08.769Z,5.05
2022-11-29T08:07:37.874Z,5.28
2022-11-29T08:10:07.616Z,5.20
2022-11-29T08:12:34.195Z,5.05
2022-11-29T08:15:01.176Z,4.40
2022-11-29T08:17:28.068Z,4.30
2022-11-29T08:19:54.497Z,3.25
2022-11-29T08:22:21.003Z,3.88
2022-11-29T08:24:47.908Z,3.20
2022-11-29T08:27:14.711Z,3.73
2022-11-29T08:29:41.276Z,3.55
2022-11-29T08:32:08.974Z,3.60
2022-11-29T08:34:35.525Z,3.70
2022-11-29T08:37:02.048Z,4.20
2022-11-29T11:08:32.671Z,3.70
2022-11-29T11:11:02.157Z,3.95
2022-11-29T11:13:31.793Z,4.68
2022-11-29T11:16:09.384Z,4.17
2022-11-29T11:18:36.871Z,4.10
2022-11-29T11:21:04.692Z,4.15
2022-11-29T11:23:37.417Z,4.68
2022-11-29T11:26:11.126Z,4.78
2022-11-29T11:28:46.831Z,4.67
2022-11-29T11:31:14.231Z,4.57
2022-11-29T11:33:44.125Z,4.45
2022-11-29T11:36:23.165Z,4.50
2022-11-29T11:38:54.762Z,5.40
2022-11-29T11:41:49.105Z,4.80
2022-11-29T11:44:53.615Z,4.82
2022-11-29T11:47:24.411Z,5.00
2022-11-29T11:49:54.792Z,4.88
2022-11-29T11:52:24.527Z,4.75
2022-11-29T11:54:55.601Z,4.53
2022-11-29T11:57:23.837Z,4.85
2022-11-29T12:04:26.273Z,4.70
2022-11-29T12:06:58.506Z,4.97
2022-11-29T12:09:40.716Z,5.17
2022-11-29T12:12:43.450Z,5.40
2022-11-29T12:15:25.492Z,5.25
2022-11-29T12:17:55.560Z,5.13
2022-11-29T12:20:31.646Z,5.50
2022-11-29T12:23:12.844Z,5.33
2022-11-29T12:25:55.746Z,5.60
2022-11-29T12:28:26.975Z,5.88
2022-11-29T12:31:14.053Z,5.57
2022-11-29T12:33:57.939Z,7.47
2022-11-29T12:36:47.012Z,6.40
2022-11-29T12:39:41.836Z,5.90
2022-11-29T12:42:30.048Z,6.22
2022-11-29T12:45:24.029Z,6.03
2022-11-29T12:47:59.054Z,5.47
2022-11-29T12:50:34.118Z,5.73
2022-11-29T12:53:26.792Z,5.57
2022-11-29T12:56:10.930Z,5.45
2022-11-29T12:58:53.875Z,6.00
2022-11-29T13:01:39.083Z,5.30
2022-11-29T13:04:06.578Z,6.00
2022-11-29T13:13:46.072Z,7.15
2022-11-29T13:16:31.665Z,6.60
2022-11-29T13:19:09.307Z,6.07
2022-11-29T13:21:57.141Z,5.97
2022-11-29T13:24:32.607Z,5.88
2022-11-29T13:27:04.301Z,5.65
2022-11-29T13:29:31.397Z,6.15
2022-11-29T13:31:58.889Z,5.83
2022-11-29T13:34:36.878Z,5.93
2022-11-29T13:37:28.088Z,5.82
2022-11-29T13:40:11.790Z,6.03
2022-11-29T13:42:45.381Z,5.57
2022-11-29T13:45:44.491Z,5.37
2022-11-29T13:48:28.419Z,5.60
2022-11-29T13:50:57.067Z,5.70
2022-11-29T13:53:25.890Z,5.40
2022-11-29T13:56:04.047Z,5.78
2022-11-29T13:58:37.544Z,5.90
2022-11-29T14:01:10.962Z,4.65
2022-11-29T14:03:40.649Z,5.10
2022-11-29T14:06:14.250Z,4.97
2022-11-29T14:09:21.161Z,4.80
2022-11-29T14:11:59.396Z,4.80
2022-11-29T14:14:32.133Z,4.70
2022-11-29T14:17:02.081Z,4.38
2022-11-29T14:19:33.942Z,3.97
2022-11-29T14:22:01.845Z,4.65
2022-11-29T14:24:32.477Z,5.03
2022-11-29T14:27:06.141Z,5.28
2022-11-29T14:42:07.568Z,5.28
2022-11-29T14:44:43.296Z,4.57
2022-11-29T14:47:23.933Z,4.38
2022-11-29T14:49:53.080Z,4.00
2022-11-29T14:52:28.532Z,4.43
2022-11-29T14:55:06.460Z,5.13
2022-11-29T14:57:56.541Z,4.38
2022-11-29T15:00:40.586Z,4.25
2022-11-29T15:03:23.083Z,4.20
2022-11-29T15:06:04.270Z,2.93
2022-11-29T15:09:03.400Z,3.58
2022-11-29T15:11:45.639Z,4.72
2022-11-29T15:14:23.849Z,4.47
2022-11-29T15:17:04.671Z,4.22
2022-11-29T15:19:53.047Z,5.10
2022-11-29T15:22:23.959Z,3.90
2022-11-29T15:24:53.163Z,3.13
2022-11-29T15:27:20.509Z,3.65
2022-11-29T15:29:48.497Z,4.45
2022-11-29T15:32:32.650Z,4.77
2022-11-29T15:34:59.726Z,6.00
2022-11-29T15:37:42.877Z,6.00
2022-11-29T15:40:29.250Z,4.55
2022-11-29T15:43:14.925Z,3.22
2022-11-29T15:45:47.795Z,3.53
2022-11-29T15:48:18.602Z,5.22
2022-11-29T15:50:57.234Z,6.03
2022-11-29T15:53:31.282Z,6.43
2022-11-29T15:56:02.992Z,6.43
2022-11-29T15:58:37.375Z,6.33
2022-11-29T16:01:04.977Z,6.88
2022-11-29T16:03:35.645Z,6.28
2022-11-29T16:06:09.785Z,7.00
2022-11-29T16:08:42.317Z,5.30
2022-11-29T16:11:17.163Z,6.27
2022-11-29T16:14:02.632Z,6.45
2022-11-29T16:16:34.953Z,6.63
2022-11-29T16:19:28.750Z,6.38
2022-11-29T16:22:13.749Z,6.55
2022-11-29T16:24:52.505Z,6.67
2022-11-29T16:27:21.085Z,6.70
2022-11-29T16:29:48.557Z,7.13
2022-11-29T16:32:33.779Z,7.38
2022-11-29T16:35:12.186Z,7.90
2022-11-29T16:37:42.131Z,7.03
2022-11-29T16:40:25.574Z,7.47
2022-11-29T16:43:06.562Z,8.23
2022-11-29T16:45:40.180Z,7.05
2022-11-29T16:48:22.109Z,7.30
2022-11-29T16:51:13.482Z,7.83
2022-11-29T16:53:42.603Z,7.68
2022-11-29T16:56:14.745Z,7.60
2022-11-29T16:59:20.798Z,8.05
2022-11-29T17:01:32.603Z,7.70
2022-11-29T17:04:00.637Z,7.13
2022-11-29T17:06:29.029Z,7.70
2022-11-29T17:08:57.403Z,7.50
2022-11-29T17:11:24.417Z,7.03
2022-11-29T17:13:51.554Z,7.75
2022-11-29T17:16:21.288Z,7.07
2022-11-29T17:18:48.264Z,7.43
2022-11-29T17:21:21.659Z,8.05
2022-11-29T17:23:48.786Z,8.10
2022-11-29T17:26:16.834Z,7.82
2022-11-29T17:28:44.820Z,7.40
2022-11-29T17:31:13.201Z,7.80
2022-11-29T17:33:40.146Z,7.82
2022-11-29T17:36:08.644Z,7.40
2022-11-29T17:38:35.373Z,7.80
2022-11-29T17:41:08.270Z,7.60
2022-11-29T17:43:36.424Z,7.10
2022-11-29T17:46:14.541Z,7.97
2022-11-29T17:48:41.629Z,7.13
2022-11-29T17:51:22.781Z,7.10
2022-11-29T17:53:56.166Z,7.17
2022-11-29T17:56:27.049Z,7.07
2022-11-29T17:58:55.596Z,6.85
2022-11-29T18:01:25.399Z,6.55
2022-11-29T18:03:55.379Z,5.97
2022-11-29T18:06:27.407Z,6.47
2022-11-29T18:08:58.681Z,6.07
2022-11-29T18:11:30.684Z,6.15
2022-11-29T18:13:59.715Z,6.68
2022-11-29T18:16:29.871Z,5.70
2022-11-29T18:19:03.545Z,5.43
2022-11-29T18:21:36.237Z,6.22
2022-11-29T18:24:06.713Z,6.35
2022-11-29T18:26:35.331Z,6.20
2022-11-29T18:29:04.481Z,5.53
2022-11-29T18:31:39.201Z,5.43
2022-11-29T18:34:10.157Z,6.32
2022-11-29T18:39:26.478Z,5.95
2022-11-29T18:41:53.619Z,6.57
2022-11-29T18:44:22.315Z,6.53
2022-11-29T18:46:50.445Z,6.85
2022-11-29T18:49:18.341Z,6.82
2022-11-29T18:51:46.514Z,6.97
2022-11-29T18:54:15.016Z,6.53
2022-11-29T18:56:44.222Z,6.93
2022-11-29T18:59:14.403Z,6.10
2022-11-29T19:01:43.241Z,6.55
2022-11-29T19:04:13.814Z,6.30
2022-11-29T19:06:44.078Z,5.53
2022-11-29T19:09:15.111Z,5.20
2022-11-29T19:11:50.087Z,5.35
2022-11-29T19:14:19.343Z,5.13
2022-11-29T19:16:56.181Z,5.32
2022-11-29T19:19:29.783Z,4.97
2022-11-29T19:22:09.427Z,5.60
2022-11-29T19:24:36.407Z,4.97
2022-11-29T19:27:04.839Z,5.55
2022-11-29T19:29:36.666Z,5.05
2022-11-29T19:32:08.541Z,5.60
2022-11-29T19:34:35.567Z,4.60
2022-11-29T19:37:04.998Z,5.32
2022-11-29T19:39:34.424Z,5.70
2022-11-29T19:42:01.188Z,5.28
2022-11-29T19:44:29.999Z,5.15
2022-11-29T19:49:46.127Z,4.55
2022-11-29T19:52:24.219Z,4.50
2022-11-29T19:54:53.302Z,4.43
2022-11-29T19:57:22.124Z,4.30
2022-11-29T19:59:50.162Z,4.33
2022-11-29T20:02:26.023Z,4.70
2022-11-29T20:07:41.271Z,4.47
2022-11-29T20:10:10.928Z,4.15
2022-11-29T20:12:44.139Z,4.33
2022-11-29T20:15:13.604Z,4.50
2022-11-29T20:17:41.227Z,4.32
2022-11-29T20:20:08.634Z,4.80
2022-11-29T20:22:35.659Z,4.70
2022-11-29T20:25:02.607Z,3.87
2022-11-29T20:27:30.883Z,4.07
2022-11-29T20:29:57.453Z,3.92
2022-11-29T20:32:28.151Z,3.80
2022-11-29T20:35:06.880Z,3.95
2022-11-29T20:38:23.883Z,3.73
2022-11-29T20:41:03.154Z,4.13
2022-11-29T20:43:57.656Z,3.95
2022-11-29T20:46:31.618Z,3.75
2022-11-29T20:49:08.847Z,4.10
2022-11-29T20:51:44.552Z,3.93
2022-11-29T21:22:24.875Z,3.67
2022-11-29T21:28:26.435Z,3.42
2022-11-29T21:45:41.927Z,3.83
2022-11-29T21:48:28.697Z,3.80
2022-11-29T21:50:56.608Z,3.97
2022-11-29T21:53:23.704Z,4.43
2022-11-29T21:55:58.297Z,3.85
2022-11-29T21:58:26.667Z,4.30
2022-11-29T22:00:53.500Z,4.90
2022-11-29T22:03:25.096Z,3.70
2022-11-29T22:05:54.976Z,4.03
2022-11-29T22:08:22.968Z,4.43
2022-11-29T22:11:00.594Z,4.35
2022-11-29T22:13:30.881Z,4.30
2022-11-29T22:16:12.388Z,3.87
2022-11-29T22:18:42.030Z,4.32
2022-11-29T22:21:10.117Z,4.20
2022-11-29T22:23:40.056Z,4.30
2022-11-29T22:26:13.066Z,4.03
2022-11-29T22:28:43.005Z,4.40
2022-11-29T22:31:18.733Z,4.25
2022-11-29T22:33:45.988Z,3.95
2022-11-29T22:36:15.153Z,5.30
2022-11-29T22:38:42.042Z,4.55
2022-11-29T22:41:14.180Z,5.13
2022-11-29T22:43:46.390Z,5.10
2022-11-29T22:46:17.605Z,5.53
2022-11-29T22:48:47.285Z,5.22
2022-11-29T22:51:20.368Z,6.18
2022-11-29T22:53:50.986Z,6.63
2022-11-29T22:56:23.470Z,5.93
2022-11-29T22:58:56.666Z,6.53
2022-11-29T23:01:29.330Z,6.15
2022-11-29T23:04:03.380Z,6.93
2022-11-29T23:06:34.716Z,6.80
2022-11-29T23:09:21.848Z,6.93
2022-11-29T23:11:53.235Z,6.50
2022-11-29T23:14:24.912Z,7.20
2022-11-29T23:16:54.824Z,7.18
2022-11-29T23:19:22.902Z,7.13
2022-11-29T23:21:56.113Z,7.43
2022-11-29T23:24:23.357Z,7.50
2022-11-29T23:26:51.220Z,7.95
2022-11-29T23:29:22.455Z,7.65
2022-11-29T23:31:55.536Z,7.60
2022-11-29T23:34:28.848Z,7.63
2022-11-29T23:36:58.851Z,7.45
2022-11-29T23:39:27.218Z,7.57
2022-11-29T23:41:56.087Z,7.22
2022-11-29T23:44:27.165Z,7.27
2022-11-29T23:46:57.821Z,7.65
2022-11-29T23:49:33.731Z,7.30
2022-11-29T23:52:03.094Z,7.47
2022-11-29T23:54:33.230Z,8.40
2022-11-29T23:57:05.508Z,8.00
2022-11-29T23:59:53.126Z,7.63
